createdAt,value
2022-12-04T00:01:32.370Z,62.85
2022-12-04T00:04:02.478Z,56.00
2022-12-04T00:06:30.282Z,64.53
2022-12-04T00:08:57.484Z,65.75
2022-12-04T00:11:28.297Z,62.72
2022-12-04T00:13:57.383Z,60.78
2022-12-04T00:16:29.634Z,57.70
2022-12-04T00:19:00.197Z,56.08
2022-12-04T00:21:27.759Z,62.15
2022-12-04T00:23:54.850Z,60.83
2022-12-04T00:26:25.318Z,63.03
2022-12-04T00:28:52.738Z,63.15
2022-12-04T00:31:25.605Z,66.22
2022-12-04T00:33:52.986Z,65.82
2022-12-04T00:36:23.440Z,61.60
2022-12-04T00:38:50.657Z,62.08
2022-12-04T00:41:22.113Z,69.50
2022-12-04T00:43:49.260Z,63.90
2022-12-04T00:46:17.093Z,61.35
2022-12-04T00:48:44.679Z,66.88
2022-12-04T00:51:22.317Z,64.32
2022-12-04T00:53:50.713Z,62.65
2022-12-04T00:56:24.156Z,61.30
2022-12-04T00:58:57.474Z,54.45
2022-12-04T01:01:26.028Z,63.42
2022-12-04T01:03:54.994Z,69.07
2022-12-04T01:06:28.305Z,62.17
2022-12-04T01:08:57.243Z,65.75
2022-12-04T01:11:26.764Z,59.80
2022-12-04T01:13:53.861Z,56.70
2022-12-04T01:16:25.779Z,67.53
2022-12-04T01:18:53.031Z,65.45
2022-12-04T01:21:20.732Z,61.15
2022-12-04T01:24:05.242Z,56.00
2022-12-04T01:26:32.829Z,62.22
2022-12-04T01:28:59.967Z,67.07
2022-12-04T01:31:27.382Z,60.60
2022-12-04T01:33:54.450Z,69.22
2022-12-04T01:36:25.583Z,62.90
2022-12-04T01:38:52.688Z,63.63
2022-12-04T01:41:27.025Z,66.47
2022-12-04T01:44:16.621Z,66.35
2022-12-04T01:46:47.034Z,62.10
2022-12-04T01:49:38.743Z,62.20
2022-12-04T01:52:11.697Z,64.32
2022-12-04T01:54:45.560Z,60.80
2022-12-04T01:57:18.505Z,69.10
2022-12-04T01:59:54.076Z,67.90
2022-12-04T02:04:54.365Z,58.38
2022-12-04T02:07:21.295Z,60.15
2022-12-04T02:09:54.122Z,64.05
2022-12-04T02:12:34.318Z,62.33
2022-12-04T02:15:15.515Z,63.85
2022-12-04T02:17:57.376Z,67.32
2022-12-04T02:20:50.092Z,63.42
2022-12-04T02:23:34.336Z,65.75
2022-12-04T02:26:56.987Z,61.10
2022-12-04T02:29:34.789Z,56.63
2022-12-04T02:32:17.142Z,61.72
2022-12-04T02:35:02.209Z,64.97
2022-12-04T02:37:35.722Z,57.83
2022-12-04T02:40:09.853Z,64.32
2022-12-04T02:42:49.373Z,60.40
2022-12-04T02:45:26.295Z,65.75
2022-12-04T02:47:55.392Z,65.93
2022-12-04T02:50:24.386Z,55.60
2022-12-04T02:53:05.894Z,59.28
2022-12-04T02:55:42.567Z,59.75
2022-12-04T02:58:21.265Z,61.55
2022-12-04T03:00:50.280Z,60.08
2022-12-04T03:03:26.865Z,66.30
2022-12-04T03:06:05.939Z,58.33
2022-12-04T03:08:44.753Z,59.05
2022-12-04T03:11:11.721Z,67.25
2022-12-04T03:13:52.897Z,64.80
2022-12-04T03:16:29.794Z,66.15
2022-12-04T03:19:09.119Z,65.72
2022-12-04T03:21:42.646Z,53.80
2022-12-04T03:24:24.213Z,69.28
2022-12-04T03:27:05.540Z,74.43
2022-12-04T03:29:40.707Z,68.65
2022-12-04T03:32:28.845Z,65.68
2022-12-04T03:35:12.893Z,68.25
2022-12-04T03:38:20.606Z,60.42
2022-12-04T03:41:03.452Z,59.92
2022-12-04T03:43:54.053Z,58.90
2022-12-04T03:46:30.445Z,58.55
2022-12-04T03:49:04.076Z,62.92
2022-12-04T03:51:45.267Z,61.70
2022-12-04T03:54:22.334Z,58.28
2022-12-04T03:56:56.356Z,62.03
2022-12-04T03:59:34.079Z,63.92
2022-12-04T04:02:03.835Z,61.08
2022-12-04T04:04:35.431Z,61.47
2022-12-04T04:07:12.103Z,57.33
2022-12-04T04:09:45.459Z,62.80
2022-12-04T04:12:22.866Z,55.13
2022-12-04T04:15:17.931Z,70.78
2022-12-04T04:18:08.298Z,65.43
2022-12-04T04:21:00.552Z,64.00
2022-12-04T04:23:53.136Z,59.38
2022-12-04T04:26:21.248Z,59.58
2022-12-04T04:28:48.270Z,64.68
2022-12-04T04:31:15.242Z,57.67
2022-12-04T04:34:00.280Z,59.22
2022-12-04T04:37:17.224Z,68.47
2022-12-04T04:40:47.984Z,52.45
2022-12-04T04:44:10.938Z,56.42
2022-12-04T04:46:45.355Z,63.10
2022-12-04T04:49:15.941Z,57.95
2022-12-04T04:51:44.267Z,62.83
2022-12-04T04:54:14.720Z,61.53
2022-12-04T04:56:44.357Z,60.17
2022-12-04T04:59:12.440Z,53.63
2022-12-04T05:01:42.316Z,62.38
2022-12-04T05:04:10.596Z,59.03
2022-12-04T05:06:37.567Z,73.85
2022-12-04T05:09:04.542Z,56.75
2022-12-04T05:11:32.324Z,61.60
2022-12-04T05:13:59.279Z,64.60
2022-12-04T05:16:26.348Z,67.40
2022-12-04T05:19:11.623Z,64.32
2022-12-04T05:21:38.817Z,62.78
2022-12-04T05:24:05.991Z,58.67
2022-12-04T05:26:32.945Z,67.63
2022-12-04T05:28:59.887Z,54.80
2022-12-04T05:40:15.377Z,52.83
2022-12-04T05:42:43.204Z,62.38
2022-12-04T05:45:10.924Z,60.60
2022-12-04T06:09:48.979Z,56.53
2022-12-04T06:12:20.137Z,55.97
2022-12-04T06:14:48.886Z,59.75
2022-12-04T06:17:16.353Z,57.58
2022-12-04T06:19:44.435Z,59.97
2022-12-04T06:22:11.608Z,54.72
2022-12-04T06:24:40.723Z,65.22
2022-12-04T06:29:54.661Z,57.50
2022-12-04T06:32:30.714Z,59.70
2022-12-04T06:35:00.547Z,57.65
2022-12-04T06:37:31.023Z,58.10
2022-12-04T06:39:59.173Z,61.25
2022-12-04T06:42:26.549Z,56.33
2022-12-04T06:44:53.508Z,59.97
2022-12-04T06:47:20.555Z,63.03
2022-12-04T06:49:50.993Z,59.88
2022-12-04T06:52:18.286Z,57.65
2022-12-04T06:54:45.260Z,62.08
2022-12-04T06:57:14.312Z,55.38
2022-12-04T06:59:48.088Z,59.80
2022-12-04T07:02:15.876Z,61.80
2022-12-04T07:04:42.918Z,51.70
2022-12-04T07:07:10.414Z,60.85
2022-12-04T07:09:37.461Z,59.78
2022-12-04T07:12:04.804Z,58.15
2022-12-04T07:14:32.314Z,57.47
2022-12-04T07:16:59.324Z,58.38
2022-12-04T07:19:26.477Z,59.58
2022-12-04T07:22:17.764Z,68.20
2022-12-04T07:24:44.613Z,61.17
2022-12-04T07:27:11.571Z,57.05
2022-12-04T07:29:38.438Z,62.80
2022-12-04T07:32:05.503Z,57.55
2022-12-04T07:34:32.637Z,55.47
2022-12-04T07:37:00.598Z,61.15
2022-12-04T07:39:28.388Z,64.68
2022-12-04T07:41:55.259Z,61.70
2022-12-04T07:44:22.169Z,58.75
2022-12-04T07:46:50.182Z,68.45
2022-12-04T07:49:17.128Z,57.20
2022-12-04T07:51:44.037Z,64.15
2022-12-04T07:54:10.913Z,55.13
2022-12-04T07:56:37.859Z,61.92
2022-12-04T07:59:05.008Z,70.47
2022-12-04T08:01:32.515Z,55.10
2022-12-04T08:04:00.959Z,56.75
2022-12-04T08:06:29.972Z,64.63
2022-12-04T08:08:57.668Z,64.10
2022-12-04T08:11:27.237Z,64.43
2022-12-04T08:14:00.322Z,54.50
2022-12-04T08:16:29.911Z,63.42
2022-12-04T08:18:58.250Z,67.50
2022-12-04T08:21:29.229Z,52.80
2022-12-04T08:23:57.961Z,69.35
2022-12-04T08:26:27.521Z,57.38
2022-12-04T08:28:55.959Z,60.30
2022-12-04T08:31:26.754Z,56.92
2022-12-04T08:33:57.195Z,54.95
2022-12-04T08:36:24.789Z,66.45
2022-12-04T08:38:52.408Z,59.72
2022-12-04T08:41:24.105Z,57.10
2022-12-04T08:43:56.916Z,58.17
2022-12-04T08:46:26.000Z,57.47
2022-12-04T08:48:54.303Z,65.90
2022-12-04T08:51:25.940Z,59.85
2022-12-04T08:54:02.419Z,62.22
2022-12-04T08:56:30.341Z,53.97
2022-12-04T08:58:58.987Z,53.42
2022-12-04T09:01:26.616Z,49.65
2022-12-04T09:03:54.512Z,56.35
2022-12-04T09:06:22.949Z,43.58
2022-12-04T09:08:54.469Z,46.50
2022-12-04T09:11:25.269Z,59.90
2022-12-04T09:13:53.183Z,46.38
2022-12-04T09:16:24.487Z,41.03
2022-12-04T09:18:52.051Z,46.50
2022-12-04T09:21:21.501Z,43.80
2022-12-04T09:23:48.528Z,38.63
2022-12-04T09:26:26.980Z,42.05
2022-12-04T09:28:55.643Z,38.45
2022-12-04T09:31:24.619Z,41.15
2022-12-04T09:33:52.563Z,45.20
2022-12-04T09:36:20.048Z,34.67
2022-12-04T09:38:50.485Z,40.50
2022-12-04T09:41:36.025Z,33.25
2022-12-04T09:44:23.635Z,32.38
2022-12-04T09:47:02.809Z,30.67
2022-12-04T09:49:46.953Z,36.83
2022-12-04T09:52:35.056Z,33.03
2022-12-04T09:55:05.777Z,31.92
2022-12-04T09:57:38.946Z,31.35
2022-12-04T10:00:07.772Z,34.55
2022-12-04T10:02:45.591Z,32.78
2022-12-04T10:05:21.598Z,26.20
2022-12-04T10:08:46.999Z,32.60
2022-12-04T10:11:33.057Z,32.50
2022-12-04T10:14:41.203Z,29.13
2022-12-04T10:17:25.495Z,31.15
2022-12-04T10:20:10.097Z,32.47
2022-12-04T10:23:14.568Z,26.77
2022-12-04T10:25:42.513Z,26.48
2022-12-04T10:28:37.817Z,24.90
2022-12-04T10:31:10.119Z,24.10
2022-12-04T10:33:47.770Z,22.02
2022-12-04T10:36:20.823Z,27.50
2022-12-04T10:39:02.350Z,27.65
2022-12-04T10:41:57.640Z,25.27
2022-12-04T10:44:24.838Z,23.63
2022-12-04T10:47:00.282Z,25.73
2022-12-04T10:49:34.484Z,25.90
2022-12-04T10:52:01.828Z,22.10
2022-12-04T10:54:59.823Z,28.25
2022-12-04T10:57:43.360Z,23.00
2022-12-04T11:00:35.572Z,22.85
2022-12-04T11:03:19.361Z,22.10
2022-12-04T11:05:55.625Z,19.85
2022-12-04T11:08:33.343Z,23.90
2022-12-04T11:11:13.601Z,23.02
2022-12-04T11:13:41.456Z,32.60
2022-12-04T11:16:32.445Z,21.10
2022-12-04T11:18:59.384Z,22.52
2022-12-04T11:21:30.641Z,23.90
2022-12-04T11:23:58.590Z,23.48
2022-12-04T11:26:38.133Z,23.90
2022-12-04T11:29:07.500Z,24.90
2022-12-04T11:31:34.584Z,17.42
2022-12-04T11:34:09.989Z,24.52
2022-12-04T11:36:41.240Z,20.98
2022-12-04T11:39:15.450Z,19.00
2022-12-04T11:41:42.558Z,21.30
2022-12-04T11:44:35.767Z,22.08
2022-12-04T11:47:06.036Z,20.08
2022-12-04T11:49:33.417Z,18.58
2022-12-04T11:52:24.661Z,21.42
2022-12-04T11:55:15.686Z,24.95
2022-12-04T11:58:00.924Z,17.17
2022-12-04T12:00:28.757Z,23.08
2022-12-04T12:03:32.247Z,22.90
2022-12-04T12:06:19.656Z,22.33
2022-12-04T12:08:54.445Z,22.05
2022-12-04T12:11:53.992Z,20.23
2022-12-04T12:14:45.743Z,29.67
2022-12-04T12:17:46.970Z,21.10
2022-12-04T12:20:23.690Z,22.20
2022-12-04T12:23:08.004Z,20.73
2022-12-04T12:25:48.794Z,20.65
2022-12-04T12:28:33.279Z,23.73
2022-12-04T12:31:21.955Z,21.92
2022-12-04T12:34:00.709Z,18.50
2022-12-04T12:36:41.361Z,28.48
2022-12-04T12:39:23.232Z,19.65
2022-12-04T12:41:57.386Z,21.00
2022-12-04T12:44:54.724Z,30.13
2022-12-04T12:47:28.739Z,21.10
2022-12-04T12:50:24.137Z,23.35
2022-12-04T12:53:10.195Z,21.42
2022-12-04T12:55:51.426Z,22.48
2022-12-04T12:58:31.874Z,26.77
2022-12-04T13:01:23.219Z,22.70
2022-12-04T13:04:00.451Z,31.83
2022-12-04T13:06:53.620Z,24.42
2022-12-04T13:09:31.788Z,29.83
2022-12-04T13:12:15.236Z,30.15
2022-12-04T13:14:47.418Z,29.63
2022-12-04T13:17:33.599Z,29.27
2022-12-04T13:20:10.111Z,34.47
2022-12-04T13:23:12.299Z,28.92
2022-12-04T13:26:09.307Z,29.42
2022-12-04T13:29:01.835Z,28.77
2022-12-04T13:32:26.806Z,32.00
2022-12-04T13:35:03.050Z,28.40
2022-12-04T13:40:33.550Z,33.38
2022-12-04T13:43:25.856Z,32.38
2022-12-04T13:45:57.207Z,28.92
2022-12-04T13:48:43.443Z,32.88
2022-12-04T13:53:43.812Z,37.40
2022-12-04T13:56:29.005Z,41.63
2022-12-04T13:59:26.578Z,40.22
2022-12-04T14:02:08.200Z,36.92
2022-12-04T14:04:53.229Z,39.30
2022-12-04T14:07:26.110Z,33.42
2022-12-04T14:09:56.324Z,38.63
2022-12-04T14:12:31.522Z,38.80
2022-12-04T14:15:02.774Z,38.03
2022-12-04T14:17:35.361Z,39.15
2022-12-04T14:20:21.565Z,38.20
2022-12-04T14:25:15.498Z,41.85
2022-12-04T14:27:42.279Z,44.50
2022-12-04T14:30:38.294Z,51.88
2022-12-04T14:33:30.670Z,38.08
2022-12-04T14:36:06.576Z,39.50
2022-12-04T14:38:34.444Z,36.63
2022-12-04T14:41:01.968Z,45.13
2022-12-04T14:43:39.450Z,44.00
2022-12-04T14:46:14.893Z,45.00
2022-12-04T14:49:04.276Z,46.35
2022-12-04T14:52:30.239Z,42.80
2022-12-04T14:55:33.555Z,39.53
2022-12-04T14:58:34.510Z,39.97
2022-12-04T15:01:29.096Z,48.35
2022-12-04T15:04:07.711Z,53.88
2022-12-04T15:06:34.621Z,48.05
2022-12-04T15:09:23.481Z,42.53
2022-12-04T15:12:14.628Z,49.05
2022-12-04T15:14:47.789Z,41.15
2022-12-04T15:17:19.242Z,41.17
2022-12-04T15:19:46.213Z,39.05
2022-12-04T15:22:26.307Z,43.10
2022-12-04T15:24:54.970Z,43.13
2022-12-04T15:27:30.568Z,41.70
2022-12-04T15:30:00.521Z,46.50
2022-12-04T15:32:30.585Z,32.28
2022-12-04T15:35:09.236Z,36.28
2022-12-04T15:37:36.854Z,40.03
2022-12-04T15:46:38.284Z,34.45
2022-12-04T15:49:19.953Z,32.10
2022-12-04T15:51:47.827Z,39.17
2022-12-04T15:54:24.756Z,42.88
2022-12-04T15:57:05.170Z,39.05
2022-12-04T15:59:35.024Z,34.10
2022-12-04T16:02:29.944Z,31.20
2022-12-04T16:05:11.030Z,44.60
2022-12-04T16:07:53.937Z,38.13
2022-12-04T16:10:31.904Z,45.38
2022-12-04T16:13:04.980Z,44.40
2022-12-04T16:15:41.538Z,37.65
2022-12-04T16:18:12.859Z,37.97
2022-12-04T16:20:41.021Z,44.17
2022-12-04T16:23:08.019Z,38.65
2022-12-04T16:25:34.889Z,42.03
2022-12-04T16:28:02.093Z,38.17
2022-12-04T16:30:33.479Z,45.25
2022-12-04T16:33:00.535Z,48.75
2022-12-04T16:35:36.386Z,33.42
2022-12-04T16:38:04.815Z,35.00
2022-12-04T16:40:31.721Z,36.58
2022-12-04T16:42:58.651Z,47.63
2022-12-04T16:45:33.641Z,40.03
2022-12-04T16:48:00.632Z,33.53
2022-12-04T16:50:51.030Z,37.30
2022-12-04T16:53:33.818Z,36.22
2022-12-04T16:56:00.761Z,34.15
2022-12-04T16:58:27.661Z,38.05
2022-12-04T17:00:56.304Z,32.17
2022-12-04T17:03:34.284Z,35.10
2022-12-04T17:06:01.786Z,36.88
2022-12-04T17:08:29.664Z,33.25
2022-12-04T17:10:56.756Z,34.00
2022-12-04T17:13:23.957Z,33.63
2022-12-04T17:15:50.966Z,31.75
2022-12-04T17:18:21.337Z,39.13
2022-12-04T17:20:48.912Z,42.17
2022-12-04T17:23:16.056Z,32.75
2022-12-04T17:25:43.995Z,31.65
2022-12-04T17:28:11.960Z,36.22
2022-12-04T17:30:40.060Z,37.20
2022-12-04T17:33:07.079Z,40.58
2022-12-04T17:43:11.117Z,34.22
2022-12-04T17:45:48.791Z,42.15
2022-12-04T17:48:48.493Z,50.63
2022-12-04T17:54:34.636Z,47.65
2022-12-04T17:57:06.404Z,38.08
2022-12-04T18:06:50.639Z,44.03
2022-12-04T18:09:43.337Z,53.17
2022-12-04T18:25:23.035Z,52.92
2022-12-04T18:40:35.689Z,48.97
2022-12-04T18:43:04.493Z,48.53
2022-12-04T18:46:08.494Z,47.45
2022-12-04T18:48:43.598Z,48.65
2022-12-04T18:54:41.539Z,57.80
2022-12-04T18:57:08.573Z,53.05
2022-12-04T18:59:37.367Z,51.05
2022-12-04T19:02:04.765Z,52.95
2022-12-04T19:04:33.501Z,58.17
2022-12-04T19:07:32.730Z,55.40
2022-12-04T19:10:10.869Z,54.53
2022-12-04T19:12:43.862Z,49.53
2022-12-04T19:15:11.511Z,58.80
2022-12-04T19:17:38.733Z,51.15
2022-12-04T19:20:07.392Z,56.70
2022-12-04T19:22:36.953Z,44.67
2022-12-04T19:25:10.151Z,50.78
2022-12-04T19:27:41.189Z,55.17
2022-12-04T19:30:10.843Z,46.50
2022-12-04T19:32:37.880Z,53.65
2022-12-04T19:35:05.366Z,57.88
2022-12-04T19:37:35.799Z,51.40
2022-12-04T19:40:06.476Z,57.15
2022-12-04T19:42:33.920Z,49.75
2022-12-04T19:45:04.195Z,47.85
2022-12-04T19:47:37.884Z,56.33
2022-12-04T19:50:17.175Z,58.05
2022-12-04T19:55:57.843Z,43.25
2022-12-04T19:58:47.702Z,55.22
2022-12-04T20:01:31.137Z,56.60
2022-12-04T20:04:11.010Z,52.80
2022-12-04T20:06:53.315Z,55.85
2022-12-04T20:09:22.191Z,52.50
2022-12-04T20:11:51.823Z,59.15
2022-12-04T20:14:20.343Z,57.08
2022-12-04T20:16:48.931Z,54.50
2022-12-04T20:19:19.753Z,53.75
2022-12-04T20:21:47.631Z,60.47
2022-12-04T20:24:17.158Z,49.53
2022-12-04T20:27:00.008Z,52.45
2022-12-04T20:29:33.500Z,59.15
2022-12-04T20:32:03.251Z,50.70
2022-12-04T20:34:41.648Z,57.05
2022-12-04T20:37:11.325Z,52.28
2022-12-04T20:39:40.476Z,54.45
2022-12-04T20:42:07.552Z,57.38
2022-12-04T20:44:35.220Z,51.25
2022-12-04T20:47:12.448Z,53.35
2022-12-04T20:49:40.997Z,52.30
2022-12-04T20:52:08.032Z,57.63
2022-12-04T20:54:41.024Z,47.92
2022-12-04T20:57:08.802Z,47.53
2022-12-04T20:59:35.748Z,56.88
2022-12-04T21:02:02.769Z,54.95
2022-12-04T21:04:29.688Z,51.75
2022-12-04T21:06:56.584Z,49.63
2022-12-04T21:09:24.929Z,54.15
2022-12-04T21:11:54.832Z,59.85
2022-12-04T21:14:47.213Z,50.33
2022-12-04T21:17:18.980Z,53.53
2022-12-04T21:19:50.676Z,50.60
2022-12-04T21:22:19.491Z,46.90
2022-12-04T21:24:47.156Z,52.05
2022-12-04T21:27:19.159Z,46.53
2022-12-04T21:29:48.478Z,50.72
2022-12-04T21:32:15.497Z,51.08
2022-12-04T21:34:42.599Z,54.25
2022-12-04T21:37:09.605Z,41.83
2022-12-04T21:39:37.005Z,49.72
2022-12-04T21:42:22.944Z,49.95
2022-12-04T21:44:49.985Z,52.55
2022-12-04T21:47:16.911Z,51.92
2022-12-04T21:49:43.802Z,47.28
2022-12-04T21:52:10.666Z,46.65
2022-12-04T21:54:37.524Z,47.58
2022-12-04T21:57:04.417Z,52.22
2022-12-04T21:59:31.417Z,49.63
2022-12-04T22:01:58.581Z,41.63
2022-12-04T22:04:25.587Z,45.78
2022-12-04T22:06:52.551Z,45.78
2022-12-04T22:09:19.805Z,51.80
2022-12-04T22:11:46.718Z,58.50
2022-12-04T22:14:13.748Z,44.33
2022-12-04T22:16:43.441Z,40.55
2022-12-04T22:19:12.478Z,42.67
2022-12-04T22:21:40.179Z,43.72
2022-12-04T22:24:08.196Z,47.13
2022-12-04T22:26:35.180Z,46.97
2022-12-04T22:29:11.210Z,49.40
2022-12-04T22:31:49.294Z,50.22
2022-12-04T22:34:16.222Z,47.88
2022-12-04T22:36:43.204Z,50.88
2022-12-04T22:39:12.935Z,49.65
2022-12-04T22:41:39.829Z,54.85
2022-12-04T22:44:07.025Z,48.67
2022-12-04T22:46:34.374Z,49.75
2022-12-04T22:49:01.422Z,48.65
2022-12-04T22:51:28.957Z,53.50
2022-12-04T22:53:58.123Z,47.75
2022-12-04T22:56:31.973Z,50.28
2022-12-04T22:58:59.801Z,55.58
2022-12-04T23:01:37.072Z,59.72
2022-12-04T23:04:04.605Z,53.58
2022-12-04T23:06:33.252Z,59.38
2022-12-04T23:09:07.438Z,54.92
2022-12-04T23:11:35.594Z,48.97
2022-12-04T23:14:05.784Z,51.38
2022-12-04T23:16:37.153Z,59.15
2022-12-04T23:19:06.538Z,56.58
2022-12-04T23:21:34.287Z,51.50
2022-12-04T23:24:01.339Z,55.15
2022-12-04T23:26:33.872Z,53.03
2022-12-04T23:29:01.868Z,51.13
2022-12-04T23:31:30.527Z,53.28
2022-12-04T23:33:57.549Z,49.63
2022-12-04T23:36:24.919Z,47.53
2022-12-04T23:38:52.003Z,53.00
2022-12-04T23:41:22.468Z,55.67
2022-12-04T23:43:51.497Z,57.80
2022-12-04T23:46:32.466Z,57.05
2022-12-04T23:49:00.506Z,56.10
2022-12-04T23:51:28.211Z,53.65
2022-12-04T23:53:55.380Z,58.33
2022-12-04T23:56:26.084Z,50.05
2022-12-04T23:58:56.782Z,53.92
